Malaviya Twenty — AUEV — position and weather

sailwx.info

Track history (hours):
 
Tides and Currents Weather Stations Pressure Air Temp Water Temp Dewpoint Dewpoint Depression Visibility Wind Speed Wind Dir Waves Ship Positions

Malaviya Twenty

Last reported at 2014-Oct-24 17:32 UTC. Time now 2014-Oct-24 18:04 UTC.
Position N 52°36' E 001°44'.

Length 72 m; draft 4.7 m.

Type: Ship. MMSI: 419504000.

Date/timePositionNaut miles runAvg speedWind from/ knotsBaromVisibWave heightAir tempDewpointWater temp
2014-Oct-24 17:32N 52°36' E 001°44'0 0.0
2014-Oct-24 16:32N 52°36' E 001°44'0 0.0
2014-Oct-24 15:32N 52°36' E 001°44'1 1.5
2014-Oct-24 14:33N 52°35' E 001°45'7 6.7
2014-Oct-24 13:33N 52°41' E 001°46'8 8.4
2014-Oct-24 12:33N 52°48' E 001°54'9 9.0
2014-Oct-24 11:33N 52°55' E 002°04'57 1.7
2014-Oct-23 01:20N 53°42' E 001°08'2 2.6
2014-Oct-23 00:23N 53°42' E 001°04'1 1.0
2014-Oct-22 23:22N 53°42' E 001°06'1 0.8
2014-Oct-22 22:33N 53°42' E 001°05'30 3.7
2014-Oct-22 14:29N 53°15' E 001°28'8 8.3
2014-Oct-22 13:33N 53°07' E 001°28'8 8.2
2014-Oct-22 12:33N 52°59' E 001°30'9 9.2
2014-Oct-22 11:33N 52°51' E 001°38'9 9.4
2014-Oct-22 10:33N 52°43' E 001°46'9 8.9
2014-Oct-22 09:33N 52°34' E 001°44'1 1.2
2014-Oct-22 08:32N 52°36' E 001°44'0 0.0
2014-Oct-22 07:32N 52°36' E 001°44'0 0.0
2014-Oct-22 06:32N 52°36' E 001°44'0 0.0
2014-Oct-22 05:32N 52°36' E 001°44'0 0.0
2014-Oct-22 04:32N 52°36' E 001°44'0 0.0
2014-Oct-22 03:32N 52°36' E 001°44'0 0.0
2014-Oct-22 02:32N 52°36' E 001°44'0 0.0
2014-Oct-22 01:31N 52°36' E 001°44'0 0.0
2014-Oct-22 00:31N 52°36' E 001°44'0 0.0
2014-Oct-21 23:31N 52°36' E 001°44'0 0.0
2014-Oct-21 22:31N 52°36' E 001°44'0 0.0
2014-Oct-21 21:31N 52°36' E 001°44'0 0.0
2014-Oct-21 20:31N 52°36' E 001°44'0 0.0
2014-Oct-21 19:31N 52°36' E 001°44'0 0.0
2014-Oct-21 18:31N 52°36' E 001°44'0 0.0
2014-Oct-21 17:31N 52°36' E 001°44'0 0.0
2014-Oct-21 16:31N 52°36' E 001°44'0 0.0
2014-Oct-21 15:31N 52°36' E 001°44'0 0.0
2014-Oct-21 14:31N 52°36' E 001°44'0 0.0
2014-Oct-21 13:31N 52°36' E 001°44'0 0.0
2014-Oct-21 12:31N 52°36' E 001°44'0 0.1
2014-Oct-21 11:34N 52°35' E 001°44'1 1.2
2014-Oct-21 10:33N 52°35' E 001°46'9 9.0
2014-Oct-21 09:34N 52°44' E 001°49'8 7.6
2014-Oct-21 08:33N 52°50' E 001°56'8 8.1
2014-Oct-21 07:33N 52°56' E 002°06'6 1.9
2014-Oct-21 04:23N 52°60' E 002°14'2 0.3
2014-Oct-20 22:32N 53°01' E 002°13'1 0.1
2014-Oct-20 15:24N 53°01' E 002°14'2 0.6
2014-Oct-20 13:03N 52°59' E 002°13'0 0.7
2014-Oct-20 12:30N 52°60' E 002°13'1 1.1
2014-Oct-20 11:23N 53°01' E 002°14'0 0.4
2014-Oct-20 10:33N 53°01' E 002°14'1 0.7
2014-Oct-20 09:09N 53°02' E 002°14'3 0.4
2014-Oct-20 01:25N 52°59' E 002°13'1 0.8
2014-Oct-20 00:33N 52°59' E 002°12'2 0.2
2014-Oct-19 17:27N 53°00' E 002°14'1 0.4
2014-Oct-19 14:14N 53°02' E 002°14'0 0.1
2014-Oct-19 09:33N 53°01' E 002°14'1 0.6
2014-Oct-19 08:33N 53°02' E 002°14'1 1.3
2014-Oct-19 07:25N 53°03' E 002°14'0 0.0
2014-Oct-19 06:32N 53°03' E 002°14'0 0.0
2014-Oct-19 05:33N 53°03' E 002°14'3 3.0
2014-Oct-19 04:30N 53°00' E 002°15'2 1.8
2014-Oct-19 03:33N 53°02' E 002°14'1 0.2
2014-Oct-18 23:29N 53°01' E 002°14'2 0.3
2014-Oct-18 16:24N 53°03' E 002°14'3 0.4
2014-Oct-18 10:33N 53°01' E 002°14'1 0.5
2014-Oct-18 09:25N 53°01' E 002°15'1 0.2
2014-Oct-18 06:22N 53°01' E 002°14'0 0.2
2014-Oct-18 05:13N 53°01' E 002°14'1 1.2
2014-Oct-18 04:31N 53°02' E 002°14'1 1.5
2014-Oct-18 03:32N 53°03' E 002°14'0 0.0
2014-Oct-18 02:24N 53°03' E 002°14'0 0.0
2014-Oct-18 01:31N 53°03' E 002°14'2 1.0
2014-Oct-17 23:28N 53°01' E 002°14'0 0.2
2014-Oct-17 22:32N 53°01' E 002°14'0 0.1
2014-Oct-17 21:12N 53°01' E 002°14'1 0.6
2014-Oct-17 19:06N 53°02' E 002°14'12 7.6
2014-Oct-17 17:33N 52°54' E 002°01'10 9.9
2014-Oct-17 16:34N 52°46' E 001°51'9 8.8
2014-Oct-17 15:34N 52°38' E 001°46'2 2.4
2014-Oct-17 14:33N 52°36' E 001°44'0 0.0
2014-Oct-17 13:33N 52°36' E 001°44'0 0.0
2014-Oct-17 12:33N 52°36' E 001°44'0 0.0
2014-Oct-17 11:33N 52°36' E 001°44'0 0.0
2014-Oct-17 10:33N 52°36' E 001°44'0 0.0
2014-Oct-17 09:33N 52°36' E 001°44'0 0.0
2014-Oct-17 08:33N 52°36' E 001°44'0 0.0
2014-Oct-17 07:33N 52°36' E 001°44'0 0.0
2014-Oct-17 06:33N 52°36' E 001°44'0 0.0
2014-Oct-17 05:33N 52°36' E 001°44'0 0.0
2014-Oct-17 04:33N 52°36' E 001°44'0 0.0
2014-Oct-17 03:33N 52°36' E 001°44'0 0.0
2014-Oct-17 02:33N 52°36' E 001°44'0 0.0
2014-Oct-17 01:33N 52°36' E 001°44'0 0.0
2014-Oct-17 00:33N 52°36' E 001°44'0 0.0
2014-Oct-16 23:32N 52°36' E 001°44'0 0.0
2014-Oct-16 22:32N 52°36' E 001°44'0 0.0
2014-Oct-16 21:32N 52°36' E 001°44'0 0.0
2014-Oct-16 20:32N 52°36' E 001°44'0 0.0
2014-Oct-16 19:32N 52°36' E 001°44'0 0.0
2014-Oct-16 18:32N 52°36' E 001°44'1 1.1
2014-Oct-16 17:33N 52°35' E 001°44'4 3.9
2014-Oct-16 16:33N 52°38' E 001°46'9 8.8
2014-Oct-16 15:33N 52°47' E 001°42'1111.4
2014-Oct-16 14:33N 52°57' E 001°33'1111.2
2014-Oct-16 13:33N 53°08' E 001°28'7 0.2
2014-Oct-14 20:30N 53°14' E 001°28'8 8.4
2014-Oct-14 19:33N 53°06' E 001°28'8 8.4
2014-Oct-14 18:33N 52°58' E 001°32'10 9.7
2014-Oct-14 17:33N 52°50' E 001°40'  
Track history (hours):
 
Tides and Currents Weather Stations Pressure Air Temp Water Temp Dewpoint Dewpoint Depression Visibility Wind Speed Wind Dir Waves Ship Positions

Malaviya Twenty

Last reported at 2014-Oct-24 17:32 UTC. Time now 2014-Oct-24 18:04 UTC.
Position N 52°36' E 001°44'.

Length 72 m; draft 4.7 m.

Type: Ship. MMSI: 419504000.

Date/timePositionNaut miles runAvg speedWind from/ knotsBaromVisibWave heightAir tempDewpointWater temp
2014-Oct-24 17:32N 52°36' E 001°44'0 0.0
2014-Oct-24 16:32N 52°36' E 001°44'0 0.0
2014-Oct-24 15:32N 52°36' E 001°44'1 1.5
2014-Oct-24 14:33N 52°35' E 001°45'7 6.7
2014-Oct-24 13:33N 52°41' E 001°46'8 8.4
2014-Oct-24 12:33N 52°48' E 001°54'9 9.0
2014-Oct-24 11:33N 52°55' E 002°04'57 1.7
2014-Oct-23 01:20N 53°42' E 001°08'2 2.6
2014-Oct-23 00:23N 53°42' E 001°04'1 1.0
2014-Oct-22 23:22N 53°42' E 001°06'1 0.8
2014-Oct-22 22:33N 53°42' E 001°05'30 3.7
2014-Oct-22 14:29N 53°15' E 001°28'8 8.3
2014-Oct-22 13:33N 53°07' E 001°28'8 8.2
2014-Oct-22 12:33N 52°59' E 001°30'9 9.2
2014-Oct-22 11:33N 52°51' E 001°38'9 9.4
2014-Oct-22 10:33N 52°43' E 001°46'9 8.9
2014-Oct-22 09:33N 52°34' E 001°44'1 1.2
2014-Oct-22 08:32N 52°36' E 001°44'0 0.0
2014-Oct-22 07:32N 52°36' E 001°44'0 0.0
2014-Oct-22 06:32N 52°36' E 001°44'0 0.0
2014-Oct-22 05:32N 52°36' E 001°44'0 0.0
2014-Oct-22 04:32N 52°36' E 001°44'0 0.0
2014-Oct-22 03:32N 52°36' E 001°44'0 0.0
2014-Oct-22 02:32N 52°36' E 001°44'0 0.0
2014-Oct-22 01:31N 52°36' E 001°44'0 0.0
2014-Oct-22 00:31N 52°36' E 001°44'0 0.0
2014-Oct-21 23:31N 52°36' E 001°44'0 0.0
2014-Oct-21 22:31N 52°36' E 001°44'0 0.0
2014-Oct-21 21:31N 52°36' E 001°44'0 0.0
2014-Oct-21 20:31N 52°36' E 001°44'0 0.0
2014-Oct-21 19:31N 52°36' E 001°44'0 0.0
2014-Oct-21 18:31N 52°36' E 001°44'0 0.0
2014-Oct-21 17:31N 52°36' E 001°44'0 0.0
2014-Oct-21 16:31N 52°36' E 001°44'0 0.0
2014-Oct-21 15:31N 52°36' E 001°44'0 0.0
2014-Oct-21 14:31N 52°36' E 001°44'0 0.0
2014-Oct-21 13:31N 52°36' E 001°44'0 0.0
2014-Oct-21 12:31N 52°36' E 001°44'0 0.1
2014-Oct-21 11:34N 52°35' E 001°44'1 1.2
2014-Oct-21 10:33N 52°35' E 001°46'9 9.0
2014-Oct-21 09:34N 52°44' E 001°49'8 7.6
2014-Oct-21 08:33N 52°50' E 001°56'8 8.1
2014-Oct-21 07:33N 52°56' E 002°06'6 1.9
2014-Oct-21 04:23N 52°60' E 002°14'2 0.3
2014-Oct-20 22:32N 53°01' E 002°13'1 0.1
2014-Oct-20 15:24N 53°01' E 002°14'2 0.6
2014-Oct-20 13:03N 52°59' E 002°13'0 0.7
2014-Oct-20 12:30N 52°60' E 002°13'1 1.1
2014-Oct-20 11:23N 53°01' E 002°14'0 0.4
2014-Oct-20 10:33N 53°01' E 002°14'1 0.7
2014-Oct-20 09:09N 53°02' E 002°14'3 0.4
2014-Oct-20 01:25N 52°59' E 002°13'1 0.8
2014-Oct-20 00:33N 52°59' E 002°12'2 0.2
2014-Oct-19 17:27N 53°00' E 002°14'1 0.4
2014-Oct-19 14:14N 53°02' E 002°14'0 0.1
2014-Oct-19 09:33N 53°01' E 002°14'1 0.6
2014-Oct-19 08:33N 53°02' E 002°14'1 1.3
2014-Oct-19 07:25N 53°03' E 002°14'0 0.0
2014-Oct-19 06:32N 53°03' E 002°14'0 0.0
2014-Oct-19 05:33N 53°03' E 002°14'3 3.0
2014-Oct-19 04:30N 53°00' E 002°15'2 1.8
2014-Oct-19 03:33N 53°02' E 002°14'1 0.2
2014-Oct-18 23:29N 53°01' E 002°14'2 0.3
2014-Oct-18 16:24N 53°03' E 002°14'3 0.4
2014-Oct-18 10:33N 53°01' E 002°14'1 0.5
2014-Oct-18 09:25N 53°01' E 002°15'1 0.2
2014-Oct-18 06:22N 53°01' E 002°14'0 0.2
2014-Oct-18 05:13N 53°01' E 002°14'1 1.2
2014-Oct-18 04:31N 53°02' E 002°14'1 1.5
2014-Oct-18 03:32N 53°03' E 002°14'0 0.0
2014-Oct-18 02:24N 53°03' E 002°14'0 0.0
2014-Oct-18 01:31N 53°03' E 002°14'2 1.0
2014-Oct-17 23:28N 53°01' E 002°14'0 0.2
2014-Oct-17 22:32N 53°01' E 002°14'0 0.1
2014-Oct-17 21:12N 53°01' E 002°14'1 0.6
2014-Oct-17 19:06N 53°02' E 002°14'12 7.6
2014-Oct-17 17:33N 52°54' E 002°01'10 9.9
2014-Oct-17 16:34N 52°46' E 001°51'9 8.8
2014-Oct-17 15:34N 52°38' E 001°46'2 2.4
2014-Oct-17 14:33N 52°36' E 001°44'0 0.0
2014-Oct-17 13:33N 52°36' E 001°44'0 0.0
2014-Oct-17 12:33N 52°36' E 001°44'0 0.0
2014-Oct-17 11:33N 52°36' E 001°44'0 0.0
2014-Oct-17 10:33N 52°36' E 001°44'0 0.0
2014-Oct-17 09:33N 52°36' E 001°44'0 0.0
2014-Oct-17 08:33N 52°36' E 001°44'0 0.0
2014-Oct-17 07:33N 52°36' E 001°44'0 0.0
2014-Oct-17 06:33N 52°36' E 001°44'0 0.0
2014-Oct-17 05:33N 52°36' E 001°44'0 0.0
2014-Oct-17 04:33N 52°36' E 001°44'0 0.0
2014-Oct-17 03:33N 52°36' E 001°44'0 0.0
2014-Oct-17 02:33N 52°36' E 001°44'0 0.0
2014-Oct-17 01:33N 52°36' E 001°44'0 0.0
2014-Oct-17 00:33N 52°36' E 001°44'0 0.0
2014-Oct-16 23:32N 52°36' E 001°44'0 0.0
2014-Oct-16 22:32N 52°36' E 001°44'0 0.0
2014-Oct-16 21:32N 52°36' E 001°44'0 0.0
2014-Oct-16 20:32N 52°36' E 001°44'0 0.0
2014-Oct-16 19:32N 52°36' E 001°44'0 0.0
2014-Oct-16 18:32N 52°36' E 001°44'1 1.1
2014-Oct-16 17:33N 52°35' E 001°44'4 3.9
2014-Oct-16 16:33N 52°38' E 001°46'9 8.8
2014-Oct-16 15:33N 52°47' E 001°42'1111.4
2014-Oct-16 14:33N 52°57' E 001°33'1111.2
2014-Oct-16 13:33N 53°08' E 001°28'7 0.2
2014-Oct-14 20:30N 53°14' E 001°28'8 8.4
2014-Oct-14 19:33N 53°06' E 001°28'8 8.4
2014-Oct-14 18:33N 52°58' E 001°32'10 9.7
2014-Oct-14 17:33N 52°50' E 001°40'  

Dump ship's entire track history